createdAt,value
2018-04-01T00:01:04.884Z,6.74
2018-04-01T00:02:09.472Z,6.73
2018-04-01T00:03:14.180Z,6.73
2018-04-01T00:04:18.684Z,6.79
2018-04-01T00:05:23.122Z,6.78
2018-04-01T00:06:27.614Z,6.81
2018-04-01T00:07:31.888Z,6.76
2018-04-01T00:08:36.363Z,6.73
2018-04-01T00:09:40.746Z,6.70
2018-04-01T00:10:45.289Z,6.76
2018-04-01T00:11:50.313Z,6.79
2018-04-01T00:12:54.596Z,6.80
2018-04-01T00:13:58.898Z,6.87
2018-04-01T00:15:04.035Z,6.85
2018-04-01T00:16:08.290Z,6.90
2018-04-01T00:17:12.958Z,6.98
2018-04-01T00:18:17.555Z,7.04
2018-04-01T00:19:22.405Z,7.00
2018-04-01T00:20:26.883Z,6.94
2018-04-01T00:21:31.394Z,7.03
2018-04-01T00:22:35.947Z,7.03
2018-04-01T00:23:40.619Z,7.03
2018-04-01T00:24:45.085Z,6.91
2018-04-01T00:25:49.439Z,6.74
2018-04-01T00:26:53.744Z,6.51
2018-04-01T00:27:58.151Z,6.37
2018-04-01T00:29:02.788Z,6.36
2018-04-01T00:30:07.363Z,6.27
2018-04-01T00:31:11.841Z,6.18
2018-04-01T00:32:16.332Z,6.11
2018-04-01T00:33:20.785Z,5.98
2018-04-01T00:34:25.350Z,5.97
2018-04-01T00:35:29.715Z,5.99
2018-04-01T00:36:34.755Z,5.98
2018-04-01T00:37:39.983Z,6.18
2018-04-01T00:38:44.292Z,6.27
2018-04-01T00:39:48.555Z,6.28
2018-04-01T00:40:53.070Z,6.30
2018-04-01T00:41:57.277Z,6.27
2018-04-01T00:43:01.920Z,6.28
2018-04-01T00:44:06.900Z,6.36
2018-04-01T00:45:11.234Z,6.36
2018-04-01T00:46:15.648Z,6.30
2018-04-01T00:47:20.271Z,6.30
2018-04-01T00:48:25.019Z,6.26
2018-04-01T00:49:29.652Z,6.26
2018-04-01T00:50:34.256Z,6.24
2018-04-01T00:51:38.694Z,6.23
2018-04-01T00:52:43.122Z,6.17
2018-04-01T00:53:47.655Z,6.24
2018-04-01T00:54:52.246Z,6.21
2018-04-01T00:55:56.918Z,6.10
2018-04-01T00:57:01.482Z,5.97
2018-04-01T00:58:05.964Z,5.91
2018-04-01T00:59:10.363Z,5.84
2018-04-01T01:00:14.881Z,5.96
2018-04-01T01:01:21.588Z,5.75
2018-04-01T01:02:26.140Z,5.76
2018-04-01T01:03:30.673Z,5.79
2018-04-01T01:04:35.702Z,5.88
2018-04-01T01:05:40.594Z,5.93
2018-04-01T01:06:46.129Z,5.84
2018-04-01T01:07:50.551Z,5.74
2018-04-01T01:08:55.348Z,5.70
2018-04-01T01:10:00.908Z,5.72
2018-04-01T01:11:05.733Z,5.95
2018-04-01T01:12:10.508Z,6.09
2018-04-01T01:13:14.826Z,5.93
2018-04-01T01:14:19.471Z,5.97
2018-04-01T01:15:24.768Z,5.87
2018-04-01T01:16:29.587Z,5.97
2018-04-01T01:17:33.892Z,5.97
2018-04-01T01:18:38.440Z,5.85
2018-04-01T01:19:42.928Z,5.82
2018-04-01T01:20:47.322Z,5.96
2018-04-01T01:21:52.183Z,5.97
2018-04-01T01:22:56.559Z,6.13
2018-04-01T01:24:00.921Z,6.27
2018-04-01T01:25:05.684Z,6.30
2018-04-01T01:26:10.372Z,6.17
2018-04-01T01:27:15.147Z,6.19
2018-04-01T01:28:20.197Z,6.29
2018-04-01T01:29:24.751Z,6.35
2018-04-01T01:30:29.186Z,6.25
2018-04-01T01:31:33.570Z,6.30
2018-04-01T01:32:38.505Z,6.10
2018-04-01T01:33:43.375Z,6.11
2018-04-01T01:34:48.202Z,6.15
2018-04-01T01:35:52.612Z,6.18
2018-04-01T01:36:57.433Z,6.22
2018-04-01T01:38:02.006Z,6.28
2018-04-01T01:39:06.684Z,6.43
2018-04-01T01:40:11.260Z,6.45
2018-04-01T01:41:16.174Z,6.44
2018-04-01T01:42:20.627Z,6.42
2018-04-01T01:43:25.199Z,6.44
2018-04-01T01:44:29.836Z,6.49
2018-04-01T01:45:34.505Z,6.38
2018-04-01T01:46:39.265Z,6.31
2018-04-01T01:47:44.067Z,6.23
2018-04-01T01:48:48.293Z,6.02
2018-04-01T01:49:52.844Z,5.92
2018-04-01T01:50:57.461Z,5.86
2018-04-01T01:52:01.984Z,5.92
2018-04-01T01:53:06.637Z,5.82
2018-04-01T01:54:11.208Z,5.75
2018-04-01T01:55:15.854Z,5.60
2018-04-01T01:56:20.388Z,5.52
2018-04-01T01:57:25.128Z,5.67
2018-04-01T01:58:29.572Z,5.64
2018-04-01T01:59:34.346Z,5.74
2018-04-01T02:00:39.265Z,5.72
2018-04-01T02:01:43.814Z,5.79
2018-04-01T02:02:48.405Z,5.60
2018-04-01T02:03:53.128Z,5.66
2018-04-01T02:04:57.520Z,5.73
2018-04-01T02:06:02.422Z,5.62
2018-04-01T02:07:07.016Z,5.57
2018-04-01T02:08:11.459Z,5.60
2018-04-01T02:09:16.079Z,5.60
2018-04-01T02:10:20.453Z,5.57
2018-04-01T02:11:24.845Z,5.50
2018-04-01T02:12:29.768Z,5.47
2018-04-01T02:13:34.332Z,5.52
2018-04-01T02:14:38.796Z,5.48
2018-04-01T02:15:43.160Z,5.49
2018-04-01T02:16:47.697Z,5.63
2018-04-01T02:17:52.208Z,5.65
2018-04-01T02:18:57.738Z,5.55
2018-04-01T02:20:01.784Z,5.43
2018-04-01T02:21:06.057Z,5.42
2018-04-01T02:22:10.767Z,5.37
2018-04-01T02:23:15.110Z,5.39
2018-04-01T02:24:19.282Z,5.40
2018-04-01T02:25:23.546Z,5.50
2018-04-01T02:26:28.197Z,5.45
2018-04-01T02:27:32.889Z,5.32
2018-04-01T02:28:37.473Z,5.32
2018-04-01T02:29:42.134Z,5.26
2018-04-01T02:30:46.391Z,5.20
2018-04-01T02:31:50.995Z,5.14
2018-04-01T02:32:55.345Z,5.18
2018-04-01T02:34:00.018Z,5.23
2018-04-01T02:35:04.468Z,5.20
2018-04-01T02:36:09.147Z,5.15
2018-04-01T02:37:13.518Z,5.13
2018-04-01T02:38:18.297Z,5.20
2018-04-01T02:39:22.263Z,5.21
2018-04-01T02:40:26.644Z,5.12
2018-04-01T02:41:31.341Z,5.25
2018-04-01T02:42:35.481Z,5.27
2018-04-01T02:43:39.694Z,5.34
2018-04-01T02:44:44.164Z,5.25
2018-04-01T02:45:48.635Z,5.36
2018-04-01T02:46:53.022Z,5.38
2018-04-01T02:47:58.341Z,5.28
2018-04-01T02:49:02.769Z,5.26
2018-04-01T02:50:07.073Z,5.20
2018-04-01T02:51:11.763Z,5.25
2018-04-01T02:52:16.591Z,5.27
2018-04-01T02:53:20.513Z,5.26
2018-04-01T02:54:24.585Z,5.22
2018-04-01T02:55:28.811Z,5.24
2018-04-01T02:56:33.342Z,5.26
2018-04-01T02:57:38.118Z,5.29
2018-04-01T02:58:42.722Z,5.42
2018-04-01T02:59:47.063Z,5.36
2018-04-01T03:00:51.187Z,5.32
2018-04-01T03:01:55.607Z,5.36
2018-04-01T03:02:59.688Z,5.40
2018-04-01T03:04:04.587Z,5.46
2018-04-01T03:05:08.780Z,5.41
2018-04-01T03:06:13.288Z,5.32
2018-04-01T03:07:17.495Z,5.32
2018-04-01T03:08:21.747Z,5.37
2018-04-01T03:09:25.808Z,5.39
2018-04-01T03:10:30.177Z,5.24
2018-04-01T03:11:35.077Z,5.32
2018-04-01T03:12:39.407Z,5.35
2018-04-01T03:13:43.448Z,5.29
2018-04-01T03:14:47.705Z,5.35
2018-04-01T03:15:51.618Z,5.22
2018-04-01T03:16:56.133Z,5.24
2018-04-01T03:18:00.322Z,5.31
2018-04-01T03:19:04.236Z,5.31
2018-04-01T03:20:08.150Z,5.43
2018-04-01T03:21:12.407Z,5.34
2018-04-01T03:22:16.664Z,5.42
2018-04-01T03:23:22.311Z,5.35
2018-04-01T03:24:26.622Z,5.30
2018-04-01T03:25:30.748Z,5.41
2018-04-01T03:26:34.573Z,5.43
2018-04-01T03:27:38.765Z,5.45
2018-04-01T03:28:43.079Z,5.27
2018-04-01T03:29:48.200Z,5.23
2018-04-01T03:30:52.440Z,5.29
2018-04-01T03:31:56.328Z,5.32
2018-04-01T03:33:00.226Z,5.35
2018-04-01T03:34:04.224Z,5.26
2018-04-01T03:35:08.144Z,5.36
2018-04-01T03:36:12.460Z,5.39
2018-04-01T03:37:16.616Z,5.37
2018-04-01T03:38:20.495Z,5.25
2018-04-01T03:39:24.820Z,5.22
2018-04-01T03:40:29.202Z,5.14
2018-04-01T03:41:33.183Z,5.25
2018-04-01T03:42:37.996Z,5.17
2018-04-01T03:43:41.928Z,5.12
2018-04-01T03:44:45.807Z,5.20
2018-04-01T03:45:49.790Z,5.08
2018-04-01T03:46:54.135Z,5.07
2018-04-01T03:47:58.277Z,5.17
2018-04-01T03:49:02.859Z,5.20
2018-04-01T03:50:07.198Z,5.11
2018-04-01T03:51:11.222Z,5.06
2018-04-01T03:52:15.134Z,5.09
2018-04-01T03:53:19.069Z,4.95
2018-04-01T03:54:22.936Z,4.98
2018-04-01T03:55:27.307Z,4.97
2018-04-01T03:56:31.470Z,4.91
2018-04-01T03:57:35.414Z,4.93
2018-04-01T03:58:39.370Z,5.03
2018-04-01T03:59:43.264Z,5.01
2018-04-01T04:00:47.620Z,4.98
2018-04-01T04:01:52.259Z,4.84
2018-04-01T04:02:56.267Z,4.83
2018-04-01T04:04:00.466Z,4.78
2018-04-01T04:05:04.896Z,4.81
2018-04-01T04:06:09.116Z,4.83
2018-04-01T04:07:14.217Z,4.86
2018-04-01T04:08:19.410Z,4.81
2018-04-01T04:09:23.423Z,4.87
2018-04-01T04:10:27.339Z,4.83
2018-04-01T04:11:31.369Z,4.88
2018-04-01T04:12:35.487Z,4.80
2018-04-01T04:13:39.567Z,4.77
2018-04-01T04:14:43.765Z,4.85
2018-04-01T04:15:47.881Z,4.90
2018-04-01T04:16:51.784Z,4.83
2018-04-01T04:17:55.858Z,4.80
2018-04-01T04:18:59.646Z,4.91
2018-04-01T04:20:03.499Z,4.91
2018-04-01T04:21:07.693Z,4.88
2018-04-01T04:22:11.575Z,4.87
2018-04-01T04:23:15.330Z,4.74
2018-04-01T04:24:19.321Z,4.83
2018-04-01T04:25:23.120Z,4.90
2018-04-01T04:26:26.897Z,4.89
2018-04-01T04:27:31.179Z,4.91
2018-04-01T04:28:35.085Z,4.94
2018-04-01T04:29:38.989Z,4.95
2018-04-01T04:30:42.927Z,4.95
2018-04-01T04:31:46.948Z,5.02
2018-04-01T04:32:50.975Z,5.05
2018-04-01T04:33:55.196Z,5.04
2018-04-01T04:34:59.092Z,5.02
2018-04-01T04:36:03.006Z,4.97
2018-04-01T04:37:06.958Z,4.96
2018-04-01T04:38:10.899Z,4.94
2018-04-01T04:39:14.860Z,4.89
2018-04-01T04:40:19.099Z,4.85
2018-04-01T04:41:23.141Z,4.86
2018-04-01T04:42:27.151Z,4.93
2018-04-01T04:43:31.312Z,4.95
2018-04-01T04:44:35.222Z,4.91
2018-04-01T04:45:39.192Z,4.85
2018-04-01T04:46:43.358Z,4.83
2018-04-01T04:47:47.325Z,4.89
2018-04-01T04:48:51.918Z,4.91
2018-04-01T04:49:55.954Z,4.82
2018-04-01T04:50:59.852Z,4.88
2018-04-01T04:52:04.801Z,4.87
2018-04-01T04:53:09.194Z,4.82
2018-04-01T04:54:13.158Z,4.77
2018-04-01T04:55:17.148Z,4.77
2018-04-01T04:56:20.984Z,4.69
2018-04-01T04:57:24.990Z,4.77
2018-04-01T04:58:28.911Z,4.84
2018-04-01T04:59:33.116Z,4.88
2018-04-01T05:00:37.913Z,4.89
2018-04-01T05:01:42.816Z,4.85
2018-04-01T05:02:47.535Z,4.74
2018-04-01T05:03:51.534Z,4.85
2018-04-01T05:04:55.703Z,4.80
2018-04-01T05:06:00.022Z,4.79
2018-04-01T05:07:03.937Z,4.76
2018-04-01T05:08:07.966Z,4.77
2018-04-01T05:09:12.380Z,4.87
2018-04-01T05:10:16.268Z,4.97
2018-04-01T05:11:20.229Z,5.02
2018-04-01T05:12:25.425Z,5.01
2018-04-01T05:13:29.660Z,4.85
2018-04-01T05:14:33.770Z,5.04
2018-04-01T05:15:37.943Z,5.01
2018-04-01T05:16:41.881Z,4.94
2018-04-01T05:17:46.045Z,5.03
2018-04-01T05:18:50.503Z,5.03
2018-04-01T05:19:54.599Z,5.03
2018-04-01T05:20:59.364Z,5.01
2018-04-01T05:22:03.722Z,5.06
2018-04-01T05:23:07.920Z,5.01
2018-04-01T05:24:12.098Z,5.07
2018-04-01T05:25:16.368Z,4.98
2018-04-01T05:26:20.648Z,4.99
2018-04-01T05:27:24.885Z,4.93
2018-04-01T05:28:28.960Z,4.91
2018-04-01T05:29:32.825Z,4.96
2018-04-01T05:30:39.616Z,4.87
2018-04-01T05:31:44.053Z,4.91
2018-04-01T05:32:48.091Z,4.89
2018-04-01T05:33:52.717Z,4.96
2018-04-01T05:34:57.003Z,4.90
2018-04-01T05:36:01.172Z,4.88
2018-04-01T05:37:06.508Z,4.83
2018-04-01T05:38:10.761Z,4.83
2018-04-01T05:39:15.297Z,4.88
2018-04-01T05:40:19.400Z,4.98
2018-04-01T05:41:23.858Z,4.98
2018-04-01T05:42:27.937Z,4.92
2018-04-01T05:43:32.068Z,4.83
2018-04-01T05:44:36.298Z,4.89
2018-04-01T05:45:40.613Z,4.92
2018-04-01T05:46:44.603Z,4.94
2018-04-01T05:47:48.407Z,4.97
2018-04-01T05:48:52.542Z,4.99
2018-04-01T05:49:56.583Z,4.88
2018-04-01T05:51:00.867Z,4.82
2018-04-01T05:52:05.217Z,4.80
2018-04-01T05:53:09.776Z,4.85
2018-04-01T05:54:14.062Z,4.82
2018-04-01T05:55:18.105Z,4.87
2018-04-01T05:56:22.393Z,4.71
2018-04-01T05:57:27.037Z,4.81
2018-04-01T05:58:31.459Z,4.91
2018-04-01T05:59:35.568Z,4.85
2018-04-01T06:00:39.958Z,4.93
2018-04-01T06:01:44.414Z,5.00
2018-04-01T06:02:48.929Z,4.98
2018-04-01T06:03:53.908Z,5.00
2018-04-01T06:04:57.887Z,4.95
2018-04-01T06:06:02.157Z,4.96
2018-04-01T06:07:06.810Z,4.98
2018-04-01T06:08:11.152Z,5.04
2018-04-01T06:09:15.872Z,5.05
2018-04-01T06:10:20.595Z,5.06
2018-04-01T06:11:25.522Z,5.04
2018-04-01T06:12:30.399Z,5.14
2018-04-01T06:13:35.061Z,5.19
2018-04-01T06:14:39.248Z,5.08
2018-04-01T06:15:43.886Z,5.07
2018-04-01T06:16:49.174Z,5.17
2018-04-01T06:17:53.794Z,5.09
2018-04-01T06:18:58.344Z,5.15
2018-04-01T06:20:02.602Z,4.93
2018-04-01T06:21:07.120Z,4.98
2018-04-01T06:22:11.707Z,5.07
2018-04-01T06:23:16.951Z,5.18
2018-04-01T06:24:21.495Z,5.17
2018-04-01T06:25:26.208Z,5.25
2018-04-01T06:26:31.706Z,5.15
2018-04-01T06:27:36.168Z,5.13
2018-04-01T06:28:40.742Z,5.17
2018-04-01T06:29:45.368Z,5.27
2018-04-01T06:30:50.008Z,5.24
2018-04-01T06:31:54.646Z,5.27
2018-04-01T06:32:59.209Z,5.26
2018-04-01T06:34:03.907Z,5.23
2018-04-01T06:35:08.404Z,5.26
2018-04-01T06:36:12.818Z,5.03
2018-04-01T06:37:17.150Z,5.01
2018-04-01T06:38:21.488Z,5.20
2018-04-01T06:39:25.985Z,5.22
2018-04-01T06:40:30.672Z,5.30
2018-04-01T06:41:35.662Z,5.36
2018-04-01T06:42:39.975Z,5.32
2018-04-01T06:43:44.429Z,5.34
2018-04-01T06:44:49.263Z,5.43
2018-04-01T06:45:53.780Z,5.21
2018-04-01T06:46:58.806Z,5.14
2018-04-01T06:48:03.350Z,5.02
2018-04-01T06:49:07.679Z,5.00
2018-04-01T06:50:12.757Z,5.09
2018-04-01T06:51:17.593Z,5.11
2018-04-01T06:52:22.243Z,5.07
2018-04-01T06:53:26.667Z,5.03
2018-04-01T06:54:31.459Z,4.89
2018-04-01T06:55:36.431Z,4.90
2018-04-01T06:56:41.066Z,4.86
2018-04-01T06:57:45.639Z,4.88
2018-04-01T06:58:50.090Z,4.92
2018-04-01T06:59:54.590Z,4.81
2018-04-01T07:00:59.658Z,4.90
2018-04-01T07:02:04.237Z,4.92
2018-04-01T07:03:08.734Z,4.92
2018-04-01T07:04:14.488Z,4.94
2018-04-01T07:05:19.981Z,5.09
2018-04-01T07:06:25.603Z,4.97
2018-04-01T07:07:31.842Z,4.88
2018-04-01T07:08:37.545Z,4.80
2018-04-01T07:09:42.855Z,4.71
2018-04-01T07:10:48.472Z,4.77
2018-04-01T07:11:53.373Z,4.86
2018-04-01T07:12:58.347Z,4.66
2018-04-01T07:14:04.654Z,4.58
2018-04-01T07:15:09.374Z,4.54
2018-04-01T07:16:17.167Z,4.66
2018-04-01T07:17:21.751Z,4.63
2018-04-01T07:18:26.531Z,4.63
2018-04-01T07:19:31.679Z,4.56
2018-04-01T07:20:37.593Z,4.47
2018-04-01T07:21:43.183Z,4.52
2018-04-01T07:22:48.133Z,4.63
2018-04-01T07:23:53.535Z,4.59
2018-04-01T07:24:58.932Z,4.60
2018-04-01T07:26:03.849Z,4.61
2018-04-01T07:27:09.334Z,4.45
2018-04-01T07:28:15.851Z,4.58
2018-04-01T07:29:21.273Z,4.48
2018-04-01T07:30:26.284Z,4.43
2018-04-01T07:31:31.752Z,4.38
2018-04-01T07:32:37.357Z,4.41
2018-04-01T07:33:42.282Z,4.35
2018-04-01T07:34:46.834Z,4.43
2018-04-01T07:35:51.840Z,4.42
2018-04-01T07:36:57.501Z,4.62
2018-04-01T07:38:02.753Z,4.59
2018-04-01T07:39:07.745Z,4.50
2018-04-01T07:40:12.841Z,4.44
2018-04-01T07:41:17.257Z,4.49
2018-04-01T07:42:21.746Z,4.50
2018-04-01T07:43:26.207Z,4.45
2018-04-01T07:44:30.955Z,4.65
2018-04-01T07:45:35.372Z,4.79
2018-04-01T07:46:40.477Z,4.88
2018-04-01T07:47:46.517Z,4.93
2018-04-01T07:48:50.960Z,4.91
2018-04-01T07:49:55.289Z,4.88
2018-04-01T07:50:59.756Z,5.00
2018-04-01T07:52:05.533Z,4.92
2018-04-01T07:53:11.279Z,4.75
2018-04-01T07:54:15.883Z,4.75
2018-04-01T07:55:20.436Z,4.77
2018-04-01T07:56:26.043Z,4.70
2018-04-01T07:57:31.665Z,4.59
2018-04-01T07:58:36.149Z,4.84
2018-04-01T07:59:41.069Z,4.90
2018-04-01T08:00:47.098Z,4.81
2018-04-01T08:01:53.264Z,4.81
2018-04-01T08:02:59.190Z,4.87
2018-04-01T08:04:04.671Z,4.81
2018-04-01T08:05:10.000Z,4.84
2018-04-01T08:06:14.921Z,4.86
2018-04-01T08:07:19.931Z,4.93
2018-04-01T08:08:25.559Z,4.88
2018-04-01T08:09:30.706Z,4.93
2018-04-01T08:10:36.458Z,4.89
2018-04-01T08:11:41.193Z,5.06
2018-04-01T08:12:46.559Z,5.21
2018-04-01T08:13:51.896Z,5.19
2018-04-01T08:14:56.727Z,5.18
2018-04-01T08:16:03.302Z,5.13
2018-04-01T08:17:09.107Z,5.06
2018-04-01T08:18:14.481Z,5.15
2018-04-01T08:19:20.182Z,5.18
2018-04-01T08:20:25.810Z,5.22
2018-04-01T08:21:32.422Z,5.18
2018-04-01T08:22:38.111Z,5.14
2018-04-01T08:23:44.235Z,5.14
2018-04-01T08:24:52.606Z,5.15
2018-04-01T08:25:57.469Z,5.31
2018-04-01T08:27:02.464Z,5.25
2018-04-01T08:28:06.772Z,5.20
2018-04-01T08:29:11.498Z,5.19
2018-04-01T08:30:16.337Z,5.25
2018-04-01T08:31:20.935Z,5.40
2018-04-01T08:32:26.950Z,5.43
2018-04-01T08:33:33.143Z,5.29
2018-04-01T08:34:38.670Z,5.10
2018-04-01T08:35:43.820Z,4.97
2018-04-01T08:36:49.102Z,4.90
2018-04-01T08:37:53.655Z,4.81
2018-04-01T08:38:58.062Z,4.82
2018-04-01T08:40:02.374Z,4.69
2018-04-01T08:41:06.832Z,4.75
2018-04-01T08:42:11.018Z,4.75
2018-04-01T08:43:15.881Z,4.81
2018-04-01T08:44:20.116Z,4.72
2018-04-01T08:45:25.225Z,4.59
2018-04-01T08:46:30.691Z,4.67
2018-04-01T08:47:35.345Z,4.76
2018-04-01T08:48:39.743Z,4.66
2018-04-01T08:49:44.998Z,4.61
2018-04-01T08:50:50.496Z,4.60
2018-04-01T08:51:56.291Z,4.53
2018-04-01T08:53:00.497Z,4.57
2018-04-01T08:54:07.871Z,4.11
2018-04-01T08:55:12.187Z,4.14
2018-04-01T08:56:16.348Z,4.09
2018-04-01T08:57:21.164Z,4.29
2018-04-01T08:58:25.731Z,4.10
2018-04-01T08:59:29.888Z,4.03
2018-04-01T09:00:34.219Z,4.11
2018-04-01T09:01:38.485Z,4.18
2018-04-01T09:02:43.648Z,4.03
2018-04-01T09:03:48.591Z,3.87
2018-04-01T09:04:53.560Z,3.99
2018-04-01T09:05:59.395Z,4.01
2018-04-01T09:07:04.589Z,4.09
2018-04-01T09:08:09.212Z,4.07
2018-04-01T09:09:13.763Z,3.88
2018-04-01T09:10:19.755Z,3.89
2018-04-01T09:11:25.261Z,3.89
2018-04-01T09:12:30.454Z,3.93
2018-04-01T09:13:35.688Z,3.95
2018-04-01T09:14:41.832Z,3.94
2018-04-01T09:15:47.550Z,4.14
2018-04-01T09:16:52.865Z,4.15
2018-04-01T09:17:58.444Z,4.14
2018-04-01T09:19:03.774Z,3.97
2018-04-01T09:20:09.229Z,3.65
2018-04-01T09:21:14.269Z,3.69
2018-04-01T09:22:19.676Z,3.79
2018-04-01T09:23:24.367Z,3.67
2018-04-01T09:24:29.358Z,3.73
2018-04-01T09:25:33.891Z,3.65
2018-04-01T09:26:38.362Z,3.72
2018-04-01T09:27:42.812Z,3.71
2018-04-01T09:28:47.558Z,3.58
2018-04-01T09:29:51.913Z,3.40
2018-04-01T09:30:56.491Z,3.42
2018-04-01T09:32:00.980Z,3.26
2018-04-01T09:33:06.194Z,3.46
2018-04-01T09:34:10.897Z,3.34
2018-04-01T09:35:16.841Z,3.39
2018-04-01T09:36:21.269Z,3.32
2018-04-01T09:37:25.995Z,3.38
2018-04-01T09:38:31.512Z,3.33
2018-04-01T09:39:37.200Z,3.36
2018-04-01T09:40:43.285Z,3.47
2018-04-01T09:41:48.369Z,3.44
2018-04-01T09:42:53.855Z,3.59
2018-04-01T09:43:59.257Z,3.37
2018-04-01T09:45:04.527Z,3.45
2018-04-01T09:46:09.115Z,3.42
2018-04-01T09:47:14.057Z,3.40
2018-04-01T09:48:18.638Z,3.48
2018-04-01T09:49:22.852Z,3.40
2018-04-01T09:50:27.105Z,3.27
2018-04-01T09:51:31.450Z,3.28
2018-04-01T09:52:35.811Z,3.40
2018-04-01T09:53:40.366Z,3.26
2018-04-01T09:54:45.365Z,3.33
2018-04-01T09:55:50.778Z,3.28
2018-04-01T09:56:55.990Z,3.40
2018-04-01T09:58:00.789Z,3.31
2018-04-01T09:59:06.090Z,3.22
2018-04-01T10:00:12.010Z,3.33
2018-04-01T10:01:19.195Z,3.44
2018-04-01T10:02:25.301Z,3.40
2018-04-01T10:03:31.514Z,3.41
2018-04-01T10:04:37.055Z,3.48
2018-04-01T10:05:42.207Z,3.54
2018-04-01T10:06:48.083Z,3.22
2018-04-01T10:07:53.545Z,3.33
2018-04-01T10:08:58.587Z,3.10
2018-04-01T10:10:04.802Z,3.13
2018-04-01T10:11:10.226Z,3.26
2018-04-01T10:12:15.552Z,2.97
2018-04-01T10:13:21.268Z,3.01
2018-04-01T10:14:26.741Z,3.31
2018-04-01T10:15:32.067Z,3.10
2018-04-01T10:16:37.389Z,3.21
2018-04-01T10:17:42.598Z,3.25
2018-04-01T10:18:48.028Z,3.45
2018-04-01T10:19:54.053Z,3.47
2018-04-01T10:20:59.205Z,3.39
2018-04-01T10:22:04.829Z,3.34
2018-04-01T10:23:10.255Z,3.49
2018-04-01T10:24:16.536Z,3.69
2018-04-01T10:25:21.943Z,3.63
2018-04-01T10:26:27.652Z,3.45
2018-04-01T10:27:32.942Z,3.49
2018-04-01T10:28:38.577Z,3.42
2018-04-01T10:29:43.611Z,3.56
2018-04-01T10:30:49.251Z,3.58
2018-04-01T10:31:54.530Z,3.55
2018-04-01T10:33:00.889Z,3.34
2018-04-01T10:34:06.427Z,3.37
2018-04-01T10:35:11.828Z,3.45
2018-04-01T10:36:16.993Z,3.35
2018-04-01T10:37:22.200Z,3.47
2018-04-01T10:38:27.660Z,3.61
2018-04-01T10:39:34.117Z,3.50
2018-04-01T10:40:40.336Z,3.41
2018-04-01T10:41:45.539Z,3.51
2018-04-01T10:42:50.637Z,3.66
2018-04-01T10:43:55.726Z,3.59
2018-04-01T10:45:00.945Z,3.50
2018-04-01T10:46:06.870Z,3.51
2018-04-01T10:47:12.410Z,3.66
2018-04-01T10:48:18.495Z,3.65
2018-04-01T10:49:23.862Z,3.66
2018-04-01T10:50:29.374Z,3.92
2018-04-01T10:51:35.684Z,4.01
2018-04-01T10:52:41.204Z,4.02
2018-04-01T10:53:50.570Z,4.03
2018-04-01T10:54:54.950Z,4.03
2018-04-01T10:55:59.315Z,3.98
2018-04-01T10:57:03.484Z,3.94
2018-04-01T10:58:07.648Z,4.08
2018-04-01T10:59:12.450Z,4.09
2018-04-01T11:00:17.176Z,3.93
2018-04-01T11:01:21.656Z,3.98
2018-04-01T11:02:26.889Z,4.11
2018-04-01T11:03:30.993Z,4.26
2018-04-01T11:04:35.237Z,4.19
2018-04-01T11:05:40.118Z,4.35
2018-04-01T11:06:44.380Z,4.50
2018-04-01T11:07:48.561Z,4.62
2018-04-01T11:08:52.549Z,4.79
2018-04-01T11:09:56.847Z,4.64
2018-04-01T11:11:03.116Z,4.56
2018-04-01T11:12:08.109Z,4.69
2018-04-01T11:13:12.399Z,4.78
2018-04-01T11:14:17.040Z,4.64
2018-04-01T11:15:21.323Z,4.53
2018-04-01T11:16:26.910Z,4.38
2018-04-01T11:17:31.576Z,4.54
2018-04-01T11:18:36.708Z,4.44
2018-04-01T11:19:42.309Z,4.65
2018-04-01T11:20:47.404Z,4.57
2018-04-01T11:21:51.911Z,4.57
2018-04-01T11:22:56.459Z,4.68
2018-04-01T11:24:00.903Z,4.54
2018-04-01T11:25:05.542Z,4.52
2018-04-01T11:26:09.836Z,4.54
2018-04-01T11:27:14.154Z,4.54
2018-04-01T11:28:18.330Z,4.61
2018-04-01T11:29:22.527Z,4.46
2018-04-01T11:30:26.893Z,4.55
2018-04-01T11:31:32.580Z,4.55
2018-04-01T11:32:37.408Z,4.59
2018-04-01T11:33:42.635Z,4.53
2018-04-01T11:34:48.255Z,4.56
2018-04-01T11:35:52.992Z,4.62
2018-04-01T11:36:57.454Z,4.66
2018-04-01T11:38:02.319Z,4.58
2018-04-01T11:39:06.625Z,4.51
2018-04-01T11:40:10.721Z,4.59
2018-04-01T11:41:14.825Z,4.56
2018-04-01T11:42:21.758Z,4.55
2018-04-01T11:43:26.345Z,4.59
2018-04-01T11:44:31.190Z,4.63
2018-04-01T11:45:35.553Z,4.53
2018-04-01T11:46:39.771Z,4.54
2018-04-01T11:47:43.865Z,4.65
2018-04-01T11:48:48.164Z,4.64
2018-04-01T11:49:53.448Z,4.64
2018-04-01T11:50:57.855Z,4.69
2018-04-01T11:52:02.395Z,4.64
2018-04-01T11:53:06.913Z,4.68
2018-04-01T11:54:11.438Z,4.60
2018-04-01T11:55:15.734Z,4.56
2018-04-01T11:56:20.205Z,4.65
2018-04-01T11:57:24.288Z,4.71
2018-04-01T11:58:28.500Z,4.71
2018-04-01T11:59:32.981Z,4.83
2018-04-01T12:00:37.239Z,4.77
2018-04-01T12:01:41.793Z,4.87
2018-04-01T12:02:48.048Z,4.84
2018-04-01T12:03:52.758Z,4.82
2018-04-01T12:04:57.814Z,4.78
2018-04-01T12:06:04.062Z,4.84
2018-04-01T12:07:09.538Z,4.99
2018-04-01T12:08:15.054Z,5.02
2018-04-01T12:09:20.406Z,4.94
2018-04-01T12:10:25.874Z,4.97
2018-04-01T12:11:31.427Z,4.94
2018-04-01T12:12:36.715Z,4.98
2018-04-01T12:13:41.458Z,4.97
2018-04-01T12:14:45.883Z,4.92
2018-04-01T12:15:50.567Z,4.91
2018-04-01T12:16:55.413Z,5.01
2018-04-01T12:17:59.574Z,5.08
2018-04-01T12:19:03.893Z,4.81
2018-04-01T12:20:08.292Z,4.85
2018-04-01T12:21:12.584Z,4.95
2018-04-01T12:22:17.206Z,4.98
2018-04-01T12:23:21.423Z,4.87
2018-04-01T12:24:28.781Z,4.82
2018-04-01T12:25:33.087Z,4.97
2018-04-01T12:26:37.774Z,4.97
2018-04-01T12:27:42.137Z,5.00
2018-04-01T12:28:47.262Z,5.10
2018-04-01T12:29:51.666Z,5.06
2018-04-01T12:30:55.775Z,4.98
2018-04-01T12:32:00.263Z,5.16
2018-04-01T12:33:04.282Z,5.13
2018-04-01T12:34:08.793Z,5.11
2018-04-01T12:35:13.430Z,5.15
2018-04-01T12:36:17.563Z,5.25
2018-04-01T12:37:21.661Z,5.25
2018-04-01T12:38:25.802Z,5.57
2018-04-01T12:39:30.197Z,5.52
2018-04-01T12:40:35.621Z,5.59
2018-04-01T12:41:42.357Z,5.57
2018-04-01T12:42:47.247Z,5.83
2018-04-01T12:43:52.244Z,5.65
2018-04-01T12:44:56.700Z,5.65
2018-04-01T12:46:02.009Z,5.67
2018-04-01T12:47:07.103Z,5.42
2018-04-01T12:48:11.267Z,5.34
2018-04-01T12:49:15.645Z,5.46
2018-04-01T12:50:20.234Z,5.55
2018-04-01T12:51:25.628Z,5.40
2018-04-01T12:52:30.367Z,5.37
2018-04-01T12:53:35.997Z,5.45
2018-04-01T12:54:40.596Z,5.48
2018-04-01T12:55:45.708Z,5.43
2018-04-01T12:56:49.796Z,5.31
2018-04-01T12:57:53.885Z,5.33
2018-04-01T12:58:57.992Z,5.30
2018-04-01T13:00:02.440Z,5.31
2018-04-01T13:01:06.906Z,5.29
2018-04-01T13:02:11.121Z,5.43
2018-04-01T13:03:15.557Z,5.31
2018-04-01T13:04:20.411Z,5.46
2018-04-01T13:05:26.311Z,5.39
2018-04-01T13:06:31.475Z,5.35
2018-04-01T13:07:36.540Z,5.28
2018-04-01T13:08:40.918Z,5.39
2018-04-01T13:09:45.038Z,5.37
2018-04-01T13:10:49.061Z,5.36
2018-04-01T13:11:53.629Z,5.40
2018-04-01T13:12:57.849Z,5.39
2018-04-01T13:14:01.958Z,5.22
2018-04-01T13:15:07.277Z,5.13
2018-04-01T13:16:11.665Z,5.06
2018-04-01T13:17:17.083Z,5.17
2018-04-01T13:18:22.931Z,5.24
2018-04-01T13:19:28.147Z,5.16
2018-04-01T13:20:33.120Z,5.32
2018-04-01T13:21:38.347Z,5.35
2018-04-01T13:22:42.888Z,5.41
2018-04-01T13:23:47.228Z,5.39
2018-04-01T13:24:51.499Z,5.27
2018-04-01T13:25:55.803Z,5.26
2018-04-01T13:26:59.833Z,5.28
2018-04-01T13:28:03.877Z,5.31
2018-04-01T13:29:09.072Z,5.39
2018-04-01T13:30:14.334Z,5.33
2018-04-01T13:31:18.461Z,5.39
2018-04-01T13:32:23.347Z,5.25
2018-04-01T13:33:29.000Z,5.18
2018-04-01T13:34:33.754Z,5.23
2018-04-01T13:35:39.272Z,5.18
2018-04-01T13:36:44.210Z,5.31
2018-04-01T13:37:49.350Z,5.22
2018-04-01T13:38:54.527Z,5.19
2018-04-01T13:39:59.723Z,5.31
2018-04-01T13:41:05.537Z,5.28
2018-04-01T13:42:10.105Z,5.16
2018-04-01T13:43:15.662Z,5.25
2018-04-01T13:44:20.603Z,5.27
2018-04-01T13:45:25.298Z,5.19
2018-04-01T13:46:29.703Z,5.32
2018-04-01T13:47:34.447Z,5.48
2018-04-01T13:48:38.928Z,5.52
2018-04-01T13:49:43.119Z,5.63
2018-04-01T13:50:47.695Z,5.72
2018-04-01T13:51:52.001Z,5.79
2018-04-01T13:52:57.145Z,5.76
2018-04-01T13:54:01.772Z,5.72
2018-04-01T13:55:05.982Z,5.76
2018-04-01T13:56:10.206Z,5.71
2018-04-01T13:57:14.425Z,5.61
2018-04-01T13:58:18.480Z,5.50
2018-04-01T13:59:22.560Z,5.53
2018-04-01T14:00:27.383Z,5.55
2018-04-01T14:01:31.641Z,5.51
2018-04-01T14:02:35.743Z,5.45
2018-04-01T14:03:39.870Z,5.59
2018-04-01T14:04:43.879Z,5.42
2018-04-01T14:05:48.160Z,5.38
2018-04-01T14:06:52.520Z,5.22
2018-04-01T14:07:56.626Z,5.17
2018-04-01T14:09:00.999Z,5.25
2018-04-01T14:10:05.443Z,5.33
2018-04-01T14:11:09.927Z,5.25
2018-04-01T14:12:14.334Z,5.32
2018-04-01T14:13:18.669Z,5.19
2018-04-01T14:14:22.659Z,5.21
2018-04-01T14:15:26.839Z,5.13
2018-04-01T14:16:31.159Z,5.17
2018-04-01T14:17:35.433Z,5.20
2018-04-01T14:18:40.076Z,5.22
2018-04-01T14:19:44.759Z,5.19
2018-04-01T14:20:49.349Z,5.30
2018-04-01T14:21:53.807Z,5.34